Portada
METAR-TAF:

METAR-TAF

Aeropuertos :

Aeropuerto Internacional Sir Donald Sangster

Montego Bay, Jamaica

latitud: 18-30N, longitud: 077-55W, altitud: 1 m

Observación

El informe se hizo hace 31 minutos, a las 14:00 UTC
Viento 7 kt del noreste
Temperatura 28°C
Humedad 79%
Presión 1015 hPa
Visibilidad 10 km o más
Escasas nubes a una altura de 2400 ft

METAR: MKJS 231400Z 05007KT 9999 FEW024 28/24 Q1015

Hora: 09:31 (14:31 UTC)

Pronóstico

El informe se hizo hace 3 horas y 16 minutos, a las 11:15 UTC
Pronóstico válido del 23 a las 12 UTC al 24 a las 12 UTC
Viento 2 kt con dirección variable
Visibilidad 10 km o más
Escasas nubes a una altura de 2400 ft
Evolucionando progresivamente
del 23 a las 14 UTC al 23 a las 16 UTC
Viento 15 kt del este-noreste
Evolucionando progresivamente
del 23 a las 23 UTC al 24 a las 01 UTC
Viento 3 kt del sur

TAF: MKJS 231115Z 2312/2412 VRB02KT 9999 FEW024 BECMG 2314/2316 06015KT BECMG 2323/2401 17003KT

Observaciones y pronósticos meteorológicos de más de 4000 aeropuertos (mensajes METAR y TAF).

Los puntos amarillos y rojos representan las estaciones disponibles.

Ponga el ratón en el punto deseado para ver el nombre de la estación.

Haga clic para ver las observaciones y los pronósticos meteorológicos.

Para cambiar el mapa : haga clic en los botones verdes con una cruz de color negro para hacer un zoom, en el botón verde con un guión para alejar o en las flechas verdes para mapas adyacentes.


METAR-TAF: